Time;durP1;ratioP1;P1;durP2;ratioP2;P2;SDS_P1;SDS_P2;PMS_P1;PMS_P2;Temp;Humidity;BMP_temperature;BMP_pressure;BME280_temperature;BME280_humidity;BME280_pressure;Samples;Min_cycle;Max_cycle;Signal;HPM_P1;HPM_P2
2023/06/09 00:01:46;;;;;;;8.23;3.47;;;;;;;;;;4388282;32;317099;-81
2023/06/09 00:04:15;;;;;;;7.12;2.72;;;;;;;;;;4376436;32;317134;-82
2023/06/09 00:06:43;;;;;;;11.25;3.72;;;;;;;;;;4385798;32;316703;-81
2023/06/09 00:09:10;;;;;;;6.85;3.65;;;;;;;;;;4376635;32;317858;-82
2023/06/09 00:11:38;;;;;;;5.40;2.53;;;;;;;;;;4387823;32;317192;-81
2023/06/09 00:14:05;;;;;;;3.75;2.87;;;;;;;;;;4376336;32;342968;-81
2023/06/09 00:16:33;;;;;;;6.75;2.80;;;;;;;;;;4387681;32;317043;-81
2023/06/09 00:19:03;;;;;;;7.87;2.62;;;;;;;;;;4377102;32;316868;-81
2023/06/09 00:21:31;;;;;;;4.40;2.90;;;;;;;;;;4387529;32;317220;-81
2023/06/09 00:23:59;;;;;;;6.18;3.83;;;;;;;;;;4387708;32;316994;-81
2023/06/09 00:26:27;;;;;;;13.80;2.92;;;;;;;;;;4374669;32;416018;-81
2023/06/09 00:28:54;;;;;;;4.95;2.83;;;;;;;;;;4388016;32;317834;-89
2023/06/09 00:31:22;;;;;;;5.57;3.00;;;;;;;;;;4378146;32;316985;-90
2023/06/09 00:33:49;;;;;;;15.60;3.22;;;;;;;;;;4387185;32;316868;-90
2023/06/09 00:36:17;;;;;;;15.15;3.58;;;;;;;;;;4376361;32;317857;-88
2023/06/09 00:38:46;;;;;;;5.20;2.70;;;;;;;;;;4386838;32;317874;-88
2023/06/09 00:41:13;;;;;;;3.37;2.70;;;;;;;;;;4377675;32;316770;-89
2023/06/09 00:43:41;;;;;;;4.65;2.60;;;;;;;;;;4386973;32;316727;-90
2023/06/09 00:46:08;;;;;;;6.45;2.45;;;;;;;;;;4377248;32;316933;-90
2023/06/09 00:48:37;;;;;;;10.95;3.33;;;;;;;;;;4385121;32;316755;-89
2023/06/09 00:51:04;;;;;;;7.75;5.00;;;;;;;;;;4372611;32;317861;-90
2023/06/09 00:53:32;;;;;;;6.93;3.97;;;;;;;;;;4387021;32;316700;-88
2023/06/09 00:56:02;;;;;;;8.86;3.52;;;;;;;;;;4382911;32;316658;-83
2023/06/09 00:58:29;;;;;;;5.68;3.40;;;;;;;;;;4387538;32;316649;-89
2023/06/09 01:00:57;;;;;;;9.63;3.42;;;;;;;;;;4386568;32;316887;-89
2023/06/09 01:03:26;;;;;;;7.72;3.00;;;;;;;;;;4375986;32;317738;-88
2023/06/09 01:06:03;;;;;;;17.70;3.58;;;;;;;;;;4387527;32;317014;-86
2023/06/09 01:08:37;;;;;;;9.88;2.97;;;;;;;;;;4373988;32;417210;-90
2023/06/09 01:11:12;;;;;;;11.82;3.53;;;;;;;;;;4377533;32;316831;-90
2023/06/09 01:13:46;;;;;;;4.80;3.25;;;;;;;;;;4386470;32;317801;-87
2023/06/09 01:16:19;;;;;;;5.68;2.50;;;;;;;;;;4375740;32;316984;-88
2023/06/09 01:18:48;;;;;;;4.90;2.90;;;;;;;;;;4390607;32;316447;-82
2023/06/09 01:21:35;;;;;;;4.35;2.95;;;;;;;;;;4375002;32;316968;-82
2023/06/09 01:24:14;;;;;;;6.70;3.40;;;;;;;;;;4376230;32;316648;-89
2023/06/09 01:26:43;;;;;;;5.22;3.30;;;;;;;;;;4386800;32;316977;-88
2023/06/09 01:29:13;;;;;;;7.70;3.20;;;;;;;;;;4376262;32;316682;-89
2023/06/09 01:31:41;;;;;;;4.20;3.28;;;;;;;;;;4387362;32;316904;-89
2023/06/09 01:34:09;;;;;;;10.85;3.40;;;;;;;;;;4376278;32;316756;-89
2023/06/09 01:36:37;;;;;;;7.00;3.28;;;;;;;;;;4384518;32;317934;-89
2023/06/09 01:39:05;;;;;;;4.68;2.95;;;;;;;;;;4376208;32;352285;-83
2023/06/09 01:41:32;;;;;;;8.50;3.35;;;;;;;;;;4385669;32;350685;-89
2023/06/09 01:44:01;;;;;;;6.32;3.33;;;;;;;;;;4376682;32;317025;-83
2023/06/09 01:46:29;;;;;;;5.68;3.03;;;;;;;;;;4386577;32;316905;-87
2023/06/09 01:49:06;;;;;;;11.57;3.22;;;;;;;;;;4385890;32;316826;-85
2023/06/09 01:51:37;;;;;;;9.15;2.75;;;;;;;;;;4373875;32;416878;-89
2023/06/09 01:54:10;;;;;;;10.65;3.47;;;;;;;;;;4376828;32;316948;-89
2023/06/09 01:56:43;;;;;;;9.48;2.90;;;;;;;;;;4386042;32;317974;-89
2023/06/09 01:59:16;;;;;;;3.87;2.70;;;;;;;;;;4374395;32;316834;-90
2023/06/09 02:01:46;;;;;;;5.80;3.22;;;;;;;;;;4386311;32;316474;-89
2023/06/09 02:04:16;;;;;;;8.52;3.97;;;;;;;;;;4376358;32;324715;-89
2023/06/09 02:06:44;;;;;;;4.20;3.65;;;;;;;;;;4385703;32;316898;-89
2023/06/09 02:09:12;;;;;;;7.97;3.10;;;;;;;;;;4373391;32;317204;-90
2023/06/09 02:11:40;;;;;;;8.57;3.53;;;;;;;;;;4385675;32;316776;-89
2023/06/09 02:14:07;;;;;;;5.62;3.10;;;;;;;;;;4375973;32;316971;-88
2023/06/09 02:16:36;;;;;;;12.77;2.97;;;;;;;;;;4386733;32;316905;-89
2023/06/09 02:19:04;;;;;;;7.45;3.08;;;;;;;;;;4375194;32;317609;-89
2023/06/09 02:21:31;;;;;;;7.65;3.47;;;;;;;;;;4385268;32;316554;-80
2023/06/09 02:23:59;;;;;;;7.70;3.67;;;;;;;;;;4384681;32;317156;-89
2023/06/09 02:26:27;;;;;;;10.65;3.30;;;;;;;;;;4373530;32;388259;-90
2023/06/09 02:28:54;;;;;;;7.87;3.22;;;;;;;;;;4385320;32;317892;-90
2023/06/09 02:31:21;;;;;;;11.27;2.65;;;;;;;;;;4374982;32;317420;-88
2023/06/09 02:33:50;;;;;;;5.60;2.75;;;;;;;;;;4386153;32;317766;-90
2023/06/09 02:36:18;;;;;;;4.68;3.37;;;;;;;;;;4376583;32;316825;-81
2023/06/09 02:38:45;;;;;;;6.80;2.92;;;;;;;;;;4385601;32;317019;-81
2023/06/09 02:41:13;;;;;;;5.97;3.33;;;;;;;;;;4374785;32;316688;-81
2023/06/09 02:43:40;;;;;;;8.63;3.45;;;;;;;;;;4386216;32;316876;-81
2023/06/09 02:46:09;;;;;;;11.32;3.58;;;;;;;;;;4374058;32;317421;-81
2023/06/09 02:48:36;;;;;;;8.73;3.05;;;;;;;;;;4385466;32;317978;-82
2023/06/09 02:51:06;;;;;;;10.05;3.62;;;;;;;;;;4374732;32;316852;-82
2023/06/09 02:53:34;;;;;;;5.72;3.42;;;;;;;;;;4383292;32;317629;-81
2023/06/09 02:56:01;;;;;;;6.68;2.90;;;;;;;;;;4373510;32;397258;-81
2023/06/09 02:58:28;;;;;;;5.65;3.58;;;;;;;;;;4384578;32;315668;-82
2023/06/09 03:00:56;;;;;;;9.32;3.47;;;;;;;;;;4385768;32;316817;-82
2023/06/09 03:03:23;;;;;;;4.43;3.25;;;;;;;;;;4376159;32;316845;-81
2023/06/09 03:05:52;;;;;;;13.00;3.60;;;;;;;;;;4384772;32;316675;-82
2023/06/09 03:08:21;;;;;;;6.15;3.28;;;;;;;;;;4375252;32;317833;-81
2023/06/09 03:10:48;;;;;;;7.18;3.67;;;;;;;;;;4385799;32;317108;-81
2023/06/09 03:13:16;;;;;;;5.90;4.15;;;;;;;;;;4375355;32;316986;-81
2023/06/09 03:15:44;;;;;;;9.50;3.45;;;;;;;;;;4385595;32;316810;-82
2023/06/09 03:18:11;;;;;;;4.22;3.70;;;;;;;;;;4374862;32;316876;-82
2023/06/09 03:20:38;;;;;;;4.12;3.25;;;;;;;;;;4384528;32;317526;-82
2023/06/09 03:23:06;;;;;;;9.05;4.60;;;;;;;;;;4375756;32;316874;-83
2023/06/09 03:25:35;;;;;;;17.45;3.70;;;;;;;;;;4384915;32;321470;-81
2023/06/09 03:28:03;;;;;;;12.48;3.62;;;;;;;;;;4374918;32;317691;-82
2023/06/09 03:30:30;;;;;;;6.43;2.85;;;;;;;;;;4386047;32;317827;-82
2023/06/09 03:32:58;;;;;;;7.18;3.53;;;;;;;;;;4385074;32;316872;-82
2023/06/09 03:35:25;;;;;;;6.78;3.33;;;;;;;;;;4373049;32;418978;-81
2023/06/09 03:37:53;;;;;;;7.60;2.55;;;;;;;;;;4385017;32;316762;-81
2023/06/09 03:40:20;;;;;;;5.43;2.95;;;;;;;;;;4375819;32;316768;-81
2023/06/09 03:42:49;;;;;;;10.40;3.58;;;;;;;;;;4384001;32;316845;-80
2023/06/09 03:45:17;;;;;;;7.30;3.40;;;;;;;;;;4375775;32;318181;-81
2023/06/09 03:47:44;;;;;;;10.70;4.55;;;;;;;;;;4387816;32;317044;-82
2023/06/09 03:50:12;;;;;;;8.93;3.65;;;;;;;;;;4376646;32;317774;-81
2023/06/09 03:52:39;;;;;;;8.48;3.78;;;;;;;;;;4387186;32;316589;-81
2023/06/09 03:55:08;;;;;;;8.98;4.07;;;;;;;;;;4377159;32;316654;-81
2023/06/09 03:57:35;;;;;;;7.50;4.22;;;;;;;;;;4387239;32;316961;-81
2023/06/09 04:00:06;;;;;;;7.80;4.43;;;;;;;;;;4376758;32;316617;-81
2023/06/09 04:02:33;;;;;;;10.52;4.50;;;;;;;;;;4387103;32;316802;-81
2023/06/09 04:05:02;;;;;;;11.48;4.30;;;;;;;;;;4376906;32;317868;-83
2023/06/09 04:07:30;;;;;;;8.30;4.75;;;;;;;;;;4388281;32;317774;-86
2023/06/09 04:09:57;;;;;;;6.97;4.55;;;;;;;;;;4387898;32;316923;-87
2023/06/09 04:12:24;;;;;;;6.05;4.37;;;;;;;;;;4377965;32;316665;-87
2023/06/09 04:14:52;;;;;;;5.45;4.32;;;;;;;;;;4387241;32;316731;-84
2023/06/09 04:17:22;;;;;;;22.60;5.85;;;;;;;;;;4378246;32;316509;-88
2023/06/09 04:19:51;;;;;;;10.88;5.20;;;;;;;;;;4388209;32;317487;-89
2023/06/09 04:22:18;;;;;;;9.63;5.72;;;;;;;;;;4377974;32;317584;-86
2023/06/09 04:24:45;;;;;;;16.48;6.05;;;;;;;;;;4385123;32;316594;-86
2023/06/09 04:27:15;;;;;;;11.98;7.12;;;;;;;;;;4377581;32;317597;-90
2023/06/09 04:29:44;;;;;;;16.55;6.53;;;;;;;;;;4386322;32;318065;-89
2023/06/09 04:32:11;;;;;;;7.60;4.75;;;;;;;;;;4376390;32;317580;-89
2023/06/09 04:34:40;;;;;;;9.90;5.10;;;;;;;;;;4385475;32;316734;-89
2023/06/09 04:37:08;;;;;;;16.15;4.47;;;;;;;;;;4374710;32;316853;-87
2023/06/09 04:39:36;;;;;;;10.25;4.60;;;;;;;;;;4386699;32;317983;-90
2023/06/09 04:42:04;;;;;;;9.90;4.50;;;;;;;;;;4377540;32;317580;-88
2023/06/09 04:44:32;;;;;;;12.15;5.00;;;;;;;;;;4384943;32;316434;-80
2023/06/09 04:47:02;;;;;;;9.52;4.32;;;;;;;;;;4380035;32;317481;-87
2023/06/09 04:49:31;;;;;;;11.38;4.95;;;;;;;;;;4387015;32;316444;-91
2023/06/09 04:52:00;;;;;;;9.85;4.37;;;;;;;;;;4386951;32;317568;-91
2023/06/09 04:54:28;;;;;;;11.73;4.60;;;;;;;;;;4373822;32;415854;-89
2023/06/09 04:56:59;;;;;;;6.30;4.75;;;;;;;;;;4386912;32;317813;-87
2023/06/09 04:59:28;;;;;;;12.57;4.75;;;;;;;;;;4379718;32;415698;-86
2023/06/09 05:01:56;;;;;;;8.43;4.32;;;;;;;;;;4391104;32;319050;-91
2023/06/09 05:04:23;;;;;;;7.85;4.47;;;;;;;;;;4380385;32;316605;-85
2023/06/09 05:06:50;;;;;;;6.50;4.80;;;;;;;;;;4391432;32;316713;-90
2023/06/09 05:09:19;;;;;;;11.68;5.05;;;;;;;;;;4380086;32;316712;-88
2023/06/09 05:11:47;;;;;;;17.92;4.95;;;;;;;;;;4389669;32;317615;-83
2023/06/09 05:14:14;;;;;;;9.73;4.85;;;;;;;;;;4380970;32;317665;-90
2023/06/09 05:16:45;;;;;;;8.45;5.12;;;;;;;;;;4389340;32;316810;-90
2023/06/09 05:19:13;;;;;;;7.80;5.30;;;;;;;;;;4376612;32;317031;-91
2023/06/09 05:21:45;;;;;;;11.38;5.07;;;;;;;;;;4389293;32;316585;-87
2023/06/09 05:24:12;;;;;;;5.60;5.07;;;;;;;;;;4379176;32;318025;-87
2023/06/09 05:26:41;;;;;;;6.78;4.95;;;;;;;;;;4386583;32;316507;-88
2023/06/09 05:29:09;;;;;;;14.82;6.20;;;;;;;;;;4375982;32;316532;-84
2023/06/09 05:31:36;;;;;;;12.18;5.80;;;;;;;;;;4391554;32;317761;-82
2023/06/09 05:34:04;;;;;;;6.43;5.50;;;;;;;;;;4371588;32;318225;-84
2023/06/09 05:36:31;;;;;;;9.50;5.85;;;;;;;;;;4386612;32;316647;-84
2023/06/09 05:39:00;;;;;;;14.63;6.07;;;;;;;;;;4385167;32;316686;-83
2023/06/09 05:41:27;;;;;;;9.60;5.62;;;;;;;;;;4372026;32;417157;-84
2023/06/09 05:43:57;;;;;;;9.60;5.87;;;;;;;;;;4385868;32;316859;-84
2023/06/09 05:46:26;;;;;;;12.45;5.43;;;;;;;;;;4373395;32;326710;-84
2023/06/09 05:48:53;;;;;;;18.02;6.72;;;;;;;;;;4385443;32;317857;-84
2023/06/09 05:51:21;;;;;;;10.38;6.03;;;;;;;;;;4375153;32;317795;-82
2023/06/09 05:53:48;;;;;;;7.95;5.43;;;;;;;;;;4386703;32;318025;-85
2023/06/09 05:56:19;;;;;;;14.48;6.07;;;;;;;;;;4373722;32;317089;-85
2023/06/09 05:58:47;;;;;;;7.15;5.35;;;;;;;;;;4385503;32;317792;-83
2023/06/09 06:01:16;;;;;;;11.00;5.47;;;;;;;;;;4375702;32;316978;-84
2023/06/09 06:03:44;;;;;;;8.25;5.22;;;;;;;;;;4385422;32;317890;-84
2023/06/09 06:06:11;;;;;;;10.98;5.72;;;;;;;;;;4375168;32;316805;-87
2023/06/09 06:08:39;;;;;;;6.97;6.07;;;;;;;;;;4383100;32;334846;-87
2023/06/09 06:11:06;;;;;;;9.60;5.80;;;;;;;;;;4374722;32;317016;-86
2023/06/09 06:13:34;;;;;;;9.60;5.57;;;;;;;;;;4384927;32;316600;-86
2023/06/09 06:16:01;;;;;;;11.25;6.10;;;;;;;;;;4374920;32;316742;-86
2023/06/09 06:18:30;;;;;;;9.27;6.82;;;;;;;;;;4385142;32;317746;-85
2023/06/09 06:20:58;;;;;;;7.85;5.78;;;;;;;;;;4385205;32;316618;-86
2023/06/09 06:23:26;;;;;;;6.75;5.95;;;;;;;;;;4372112;32;416494;-87
2023/06/09 06:25:53;;;;;;;6.07;5.47;;;;;;;;;;4383574;32;349808;-87
2023/06/09 06:28:21;;;;;;;7.37;6.12;;;;;;;;;;4375741;32;316616;-87
2023/06/09 06:30:49;;;;;;;15.85;6.47;;;;;;;;;;4385266;32;316694;-86
2023/06/09 06:33:17;;;;;;;9.02;6.53;;;;;;;;;;4374820;32;317625;-85
2023/06/09 06:35:46;;;;;;;14.95;7.03;;;;;;;;;;4383807;32;316816;-87
2023/06/09 06:38:14;;;;;;;11.45;6.50;;;;;;;;;;4374610;32;317856;-87
2023/06/09 06:40:43;;;;;;;11.32;6.30;;;;;;;;;;4384366;32;317648;-86
2023/06/09 06:43:11;;;;;;;12.25;6.60;;;;;;;;;;4374463;32;317921;-86
2023/06/09 06:45:39;;;;;;;11.35;6.00;;;;;;;;;;4384949;32;317746;-87
2023/06/09 06:48:06;;;;;;;8.57;5.60;;;;;;;;;;4373549;32;317901;-87
2023/06/09 06:50:34;;;;;;;7.18;5.55;;;;;;;;;;4384051;32;316622;-87
2023/06/09 06:53:03;;;;;;;7.68;5.68;;;;;;;;;;4375711;32;316742;-86
2023/06/09 06:55:30;;;;;;;7.95;5.50;;;;;;;;;;4384689;32;316701;-87
2023/06/09 06:57:58;;;;;;;11.15;5.68;;;;;;;;;;4384615;32;316591;-86
2023/06/09 07:00:27;;;;;;;12.85;6.15;;;;;;;;;;4373183;32;387428;-87
2023/06/09 07:02:55;;;;;;;9.90;5.95;;;;;;;;;;4383067;32;317593;-86
2023/06/09 07:05:22;;;;;;;6.60;5.47;;;;;;;;;;4373939;32;351236;-86
2023/06/09 07:07:50;;;;;;;10.02;5.62;;;;;;;;;;4384728;32;334628;-85
2023/06/09 07:10:19;;;;;;;9.43;4.68;;;;;;;;;;4373291;32;317816;-84
2023/06/09 07:12:46;;;;;;;9.82;4.97;;;;;;;;;;4385640;32;316853;-86
2023/06/09 07:15:14;;;;;;;6.45;4.12;;;;;;;;;;4374873;32;316784;-85
2023/06/09 07:17:41;;;;;;;9.90;4.60;;;;;;;;;;4384660;32;316631;-85
2023/06/09 07:20:27;;;;;;;4.65;3.85;;;;;;;;;;4376722;32;316628;-84
2023/06/09 07:22:54;;;;;;;8.20;4.78;;;;;;;;;;4387833;32;316859;-86
2023/06/09 07:25:23;;;;;;;8.45;4.78;;;;;;;;;;4378369;32;316725;-85
2023/06/09 07:27:51;;;;;;;9.32;4.90;;;;;;;;;;4388340;32;316811;-85
2023/06/09 07:30:18;;;;;;;9.93;4.62;;;;;;;;;;4376898;32;316741;-81
2023/06/09 07:32:47;;;;;;;10.48;5.22;;;;;;;;;;4386961;32;316739;-86
2023/06/09 07:35:14;;;;;;;5.62;3.45;;;;;;;;;;4376971;32;317863;-84
2023/06/09 07:37:42;;;;;;;8.93;4.65;;;;;;;;;;4388634;32;316881;-86
2023/06/09 07:40:10;;;;;;;5.90;3.95;;;;;;;;;;4378330;32;316681;-86
2023/06/09 07:42:39;;;;;;;6.40;4.30;;;;;;;;;;4388369;32;316879;-85
2023/06/09 07:45:10;;;;;;;6.30;3.83;;;;;;;;;;4375032;32;316803;-86
2023/06/09 07:47:37;;;;;;;6.00;4.20;;;;;;;;;;4387485;32;316973;-83
2023/06/09 07:50:06;;;;;;;5.47;4.28;;;;;;;;;;4376705;32;316799;-85
2023/06/09 07:52:36;;;;;;;6.30;4.28;;;;;;;;;;4388469;32;316818;-83
2023/06/09 07:55:04;;;;;;;4.75;3.67;;;;;;;;;;4373484;32;348532;-85
2023/06/09 07:57:32;;;;;;;4.75;3.50;;;;;;;;;;4387821;32;330125;-86
2023/06/09 08:00:01;;;;;;;10.32;3.45;;;;;;;;;;4387807;32;316702;-85
2023/06/09 08:02:30;;;;;;;5.22;3.67;;;;;;;;;;4375228;32;417322;-86
2023/06/09 08:04:57;;;;;;;8.55;3.83;;;;;;;;;;4386853;32;316867;-86
2023/06/09 08:07:24;;;;;;;4.97;3.35;;;;;;;;;;4377546;32;316687;-85
2023/06/09 08:09:52;;;;;;;8.60;3.85;;;;;;;;;;4386385;32;325150;-86
2023/06/09 08:12:20;;;;;;;7.87;4.22;;;;;;;;;;4376555;32;316647;-85
2023/06/09 08:14:47;;;;;;;6.05;3.92;;;;;;;;;;4387801;32;316958;-85
2023/06/09 08:17:16;;;;;;;7.62;3.22;;;;;;;;;;4377333;32;316971;-86
2023/06/09 08:19:43;;;;;;;6.72;4.07;;;;;;;;;;4386693;32;316680;-86
2023/06/09 08:22:11;;;;;;;4.62;3.83;;;;;;;;;;4377930;32;316517;-83
2023/06/09 08:24:38;;;;;;;5.75;3.22;;;;;;;;;;4386179;32;315468;-86
2023/06/09 08:27:07;;;;;;;5.85;3.28;;;;;;;;;;4377354;32;316616;-85
2023/06/09 08:29:36;;;;;;;6.72;3.62;;;;;;;;;;4384906;32;316911;-84
2023/06/09 08:32:03;;;;;;;5.95;3.50;;;;;;;;;;4373856;32;316753;-82
2023/06/09 08:34:32;;;;;;;4.25;3.00;;;;;;;;;;4386455;32;355751;-85
2023/06/09 08:37:01;;;;;;;6.68;3.85;;;;;;;;;;4387196;32;316571;-88
2023/06/09 08:39:28;;;;;;;9.10;3.53;;;;;;;;;;4372292;32;416343;-86
2023/06/09 08:41:57;;;;;;;6.10;3.17;;;;;;;;;;4387377;32;316532;-86
2023/06/09 08:44:27;;;;;;;5.68;3.35;;;;;;;;;;4375125;32;323013;-86
2023/06/09 08:46:58;;;;;;;7.55;3.50;;;;;;;;;;4386467;32;316668;-85
2023/06/09 08:49:26;;;;;;;5.05;3.80;;;;;;;;;;4372033;32;416131;-87
2023/06/09 08:51:55;;;;;;;8.35;3.28;;;;;;;;;;4386359;32;316645;-87
2023/06/09 08:54:22;;;;;;;5.45;3.33;;;;;;;;;;4375890;32;316974;-86
2023/06/09 08:56:51;;;;;;;12.43;4.55;;;;;;;;;;4387122;32;316632;-86
2023/06/09 08:59:20;;;;;;;5.47;3.72;;;;;;;;;;4373246;32;317757;-82
2023/06/09 09:01:50;;;;;;;5.40;3.95;;;;;;;;;;4387121;32;316611;-87
2023/06/09 09:04:17;;;;;;;10.30;4.00;;;;;;;;;;4375587;32;316630;-87
2023/06/09 09:06:45;;;;;;;10.63;4.62;;;;;;;;;;4386922;32;322562;-87
2023/06/09 09:09:15;;;;;;;9.90;4.22;;;;;;;;;;4376583;32;317858;-86
2023/06/09 09:11:45;;;;;;;5.78;3.65;;;;;;;;;;4386040;32;324960;-86
2023/06/09 09:14:14;;;;;;;8.68;4.60;;;;;;;;;;4376266;32;316820;-87
2023/06/09 09:16:41;;;;;;;5.90;3.20;;;;;;;;;;4386899;32;317060;-87
2023/06/09 09:19:09;;;;;;;11.50;3.97;;;;;;;;;;4374680;32;317117;-86
2023/06/09 09:21:37;;;;;;;7.00;4.15;;;;;;;;;;4386745;32;317892;-87
2023/06/09 09:24:06;;;;;;;9.10;3.92;;;;;;;;;;4375613;32;316839;-85
2023/06/09 09:26:35;;;;;;;6.85;3.97;;;;;;;;;;4385770;32;316868;-85
2023/06/09 09:29:06;;;;;;;7.45;3.42;;;;;;;;;;4375968;32;324778;-87
2023/06/09 09:31:35;;;;;;;6.10;3.87;;;;;;;;;;4386227;32;316686;-83
2023/06/09 09:34:03;;;;;;;6.78;3.50;;;;;;;;;;4376469;32;316761;-87
2023/06/09 09:36:30;;;;;;;6.65;3.53;;;;;;;;;;4385943;32;316880;-87
2023/06/09 09:39:02;;;;;;;7.18;3.83;;;;;;;;;;4385520;32;316980;-87
2023/06/09 09:41:30;;;;;;;9.35;4.70;;;;;;;;;;4374442;32;386162;-85
2023/06/09 09:43:59;;;;;;;9.50;4.53;;;;;;;;;;4385464;32;317140;-87
2023/06/09 09:46:26;;;;;;;4.70;3.65;;;;;;;;;;4372083;32;418889;-87
2023/06/09 09:48:56;;;;;;;4.70;3.30;;;;;;;;;;4387655;32;316834;-87
2023/06/09 09:51:24;;;;;;;4.25;3.42;;;;;;;;;;4375749;32;316846;-86
2023/06/09 09:53:51;;;;;;;4.93;3.00;;;;;;;;;;4386321;32;317048;-86
2023/06/09 09:56:22;;;;;;;4.93;3.05;;;;;;;;;;4375613;32;316950;-81
2023/06/09 09:58:54;;;;;;;6.22;3.37;;;;;;;;;;4386226;32;316899;-86
2023/06/09 10:01:25;;;;;;;5.55;3.37;;;;;;;;;;4375869;32;317011;-87
2023/06/09 10:03:55;;;;;;;4.30;3.20;;;;;;;;;;4386015;32;316975;-87
2023/06/09 10:06:27;;;;;;;6.15;3.65;;;;;;;;;;4374236;32;317031;-87
2023/06/09 10:08:55;;;;;;;5.35;3.60;;;;;;;;;;4385217;32;317193;-87
2023/06/09 10:11:23;;;;;;;6.35;3.72;;;;;;;;;;4375597;32;316789;-82
2023/06/09 10:13:53;;;;;;;7.50;4.78;;;;;;;;;;4385794;32;316774;-83
2023/06/09 10:16:25;;;;;;;4.75;3.72;;;;;;;;;;4374729;32;316664;-84
2023/06/09 10:18:52;;;;;;;15.13;3.35;;;;;;;;;;4384993;32;325205;-84
2023/06/09 10:21:21;;;;;;;4.18;3.10;;;;;;;;;;4375294;32;317945;-84
2023/06/09 10:23:49;;;;;;;4.00;3.05;;;;;;;;;;4385004;32;316712;-83
2023/06/09 10:26:17;;;;;;;3.97;2.97;;;;;;;;;;4376372;32;316764;-84
2023/06/09 10:28:45;;;;;;;5.18;3.20;;;;;;;;;;4385145;32;317100;-84
2023/06/09 10:31:16;;;;;;;4.03;3.40;;;;;;;;;;4375494;32;316862;-84
2023/06/09 10:33:46;;;;;;;6.45;3.50;;;;;;;;;;4385887;32;316857;-84
2023/06/09 10:36:14;;;;;;;6.25;2.87;;;;;;;;;;4375677;32;316769;-84
2023/06/09 10:38:42;;;;;;;7.25;3.05;;;;;;;;;;4384715;32;317216;-84
2023/06/09 10:41:15;;;;;;;6.62;3.70;;;;;;;;;;4375340;32;316992;-92
2023/06/09 10:43:59;;;;;;;4.87;3.67;;;;;;;;;;4385315;32;316519;-87
2023/06/09 10:46:43;;;;;;;6.93;2.87;;;;;;;;;;4373349;32;416024;-88
2023/06/09 10:49:37;;;;;;;7.20;3.37;;;;;;;;;;4375812;32;316873;-87
2023/06/09 10:52:06;;;;;;;5.57;2.92;;;;;;;;;;4375384;32;316994;-86
2023/06/09 10:54:35;;;;;;;5.05;3.72;;;;;;;;;;4386676;32;316793;-88
2023/06/09 10:57:06;;;;;;;4.72;3.12;;;;;;;;;;4378348;32;316847;-82
2023/06/09 10:59:55;;;;;;;7.43;4.53;;;;;;;;;;4389020;32;316916;-82
2023/06/09 11:02:22;;;;;;;4.87;3.92;;;;;;;;;;4369168;32;357221;-82
2023/06/09 11:04:52;;;;;;;9.10;4.82;;;;;;;;;;4388295;32;317243;-82
2023/06/09 11:07:21;;;;;;;15.18;7.60;;;;;;;;;;4378838;32;316878;-81
2023/06/09 11:10:34;;;;;;;10.50;6.62;;;;;;;;;;4386803;32;317838;-82
2023/06/09 11:13:03;;;;;;;10.35;5.80;;;;;;;;;;4373782;32;417552;-82
2023/06/09 11:16:01;;;;;;;11.15;5.93;;;;;;;;;;4388983;32;317865;-82
2023/06/09 11:18:29;;;;;;;7.55;5.22;;;;;;;;;;4374923;32;417950;-82
2023/06/09 11:21:19;;;;;;;16.25;4.28;;;;;;;;;;4388728;32;316696;-82
2023/06/09 11:24:00;;;;;;;6.78;3.17;;;;;;;;;;4375444;32;418093;-82
2023/06/09 11:26:28;;;;;;;7.95;3.05;;;;;;;;;;4374382;32;417119;-82
2023/06/09 11:28:56;;;;;;;4.78;2.85;;;;;;;;;;4388105;32;316964;-82
2023/06/09 11:31:23;;;;;;;12.45;3.45;;;;;;;;;;4376613;32;327323;-82
2023/06/09 11:33:53;;;;;;;7.82;3.00;;;;;;;;;;4388811;32;317893;-82
2023/06/09 11:36:30;;;;;;;6.75;3.10;;;;;;;;;;4375638;32;316875;-82
2023/06/09 11:39:07;;;;;;;5.65;3.58;;;;;;;;;;4386371;32;316964;-82
2023/06/09 11:41:35;;;;;;;5.10;3.60;;;;;;;;;;4374843;32;416491;-82
2023/06/09 11:44:02;;;;;;;6.75;2.58;;;;;;;;;;4376172;32;317139;-82
2023/06/09 11:46:36;;;;;;;8.50;3.50;;;;;;;;;;4387031;32;316882;-82
2023/06/09 11:49:08;;;;;;;4.85;3.35;;;;;;;;;;4377171;32;327748;-82
2023/06/09 11:51:57;;;;;;;5.62;4.05;;;;;;;;;;4385783;32;316776;-81
2023/06/09 11:54:45;;;;;;;8.98;3.58;;;;;;;;;;4378486;32;316993;-81
2023/06/09 11:57:15;;;;;;;5.32;3.95;;;;;;;;;;4375902;32;317006;-82
2023/06/09 11:59:43;;;;;;;6.90;4.30;;;;;;;;;;4387391;32;316876;-82
2023/06/09 12:02:13;;;;;;;5.45;4.15;;;;;;;;;;4377361;32;316929;-81
2023/06/09 12:04:43;;;;;;;5.12;3.10;;;;;;;;;;4386545;32;316944;-82
2023/06/09 12:07:17;;;;;;;4.53;3.08;;;;;;;;;;4376013;32;316716;-82
2023/06/09 12:09:45;;;;;;;4.75;2.80;;;;;;;;;;4385293;32;316834;-82
2023/06/09 12:12:13;;;;;;;8.57;3.28;;;;;;;;;;4377833;32;316885;-83
2023/06/09 12:14:40;;;;;;;5.82;3.83;;;;;;;;;;4387205;32;317606;-82
2023/06/09 12:17:09;;;;;;;5.78;3.05;;;;;;;;;;4376380;32;316732;-81
2023/06/09 12:19:37;;;;;;;6.57;3.33;;;;;;;;;;4387357;32;316696;-81
2023/06/09 12:22:04;;;;;;;6.72;3.85;;;;;;;;;;4377414;32;329191;-82
2023/06/09 12:24:34;;;;;;;7.93;4.28;;;;;;;;;;4385204;32;316915;-81
2023/06/09 12:27:12;;;;;;;11.60;4.43;;;;;;;;;;4375885;32;373067;-83
2023/06/09 12:29:40;;;;;;;6.22;3.85;;;;;;;;;;4385538;32;318195;-81
2023/06/09 12:32:09;;;;;;;7.07;4.15;;;;;;;;;;4375225;32;355283;-81
2023/06/09 12:34:36;;;;;;;9.20;4.03;;;;;;;;;;4387020;32;316983;-81
2023/06/09 12:37:07;;;;;;;7.32;4.20;;;;;;;;;;4376731;32;316934;-82
2023/06/09 12:39:36;;;;;;;8.48;4.50;;;;;;;;;;4386290;32;316699;-82
2023/06/09 12:42:13;;;;;;;9.75;4.05;;;;;;;;;;4376911;32;318863;-82
2023/06/09 12:44:41;;;;;;;7.05;4.07;;;;;;;;;;4386972;32;316774;-81
2023/06/09 12:47:16;;;;;;;6.32;4.12;;;;;;;;;;4375546;32;316821;-82
2023/06/09 12:49:49;;;;;;;6.05;4.00;;;;;;;;;;4387755;32;316883;-82
2023/06/09 12:52:16;;;;;;;4.47;3.60;;;;;;;;;;4376338;32;316656;-82
2023/06/09 12:54:52;;;;;;;5.47;4.03;;;;;;;;;;4384930;32;325926;-82
2023/06/09 12:57:19;;;;;;;4.47;3.65;;;;;;;;;;4376886;32;316941;-82
2023/06/09 12:59:46;;;;;;;8.30;4.07;;;;;;;;;;4386548;32;316831;-81
2023/06/09 13:02:14;;;;;;;8.15;4.12;;;;;;;;;;4376238;32;316977;-81
2023/06/09 13:04:41;;;;;;;14.40;4.47;;;;;;;;;;4386513;32;334357;-82
2023/06/09 13:07:09;;;;;;;6.68;4.40;;;;;;;;;;4387575;32;318031;-82
2023/06/09 13:09:37;;;;;;;6.43;4.22;;;;;;;;;;4365324;32;316870;-82
2023/06/09 13:12:06;;;;;;;9.30;4.22;;;;;;;;;;4387133;32;316782;-82
2023/06/09 13:14:34;;;;;;;8.15;4.43;;;;;;;;;;4375393;32;316612;-82
2023/06/09 13:17:01;;;;;;;8.68;3.67;;;;;;;;;;4385346;32;316885;-81
2023/06/09 13:19:30;;;;;;;5.55;3.60;;;;;;;;;;4375861;32;316827;-82
2023/06/09 13:21:57;;;;;;;9.60;3.28;;;;;;;;;;4385362;32;316775;-82
2023/06/09 13:24:24;;;;;;;6.78;3.55;;;;;;;;;;4375150;32;316949;-82
2023/06/09 13:26:52;;;;;;;5.55;4.00;;;;;;;;;;4386300;32;316724;-82
2023/06/09 13:29:21;;;;;;;11.85;3.70;;;;;;;;;;4381804;32;317191;-82
2023/06/09 13:31:48;;;;;;;5.37;3.33;;;;;;;;;;4385491;32;317975;-82
2023/06/09 13:34:16;;;;;;;9.75;3.33;;;;;;;;;;4387052;32;316869;-82
2023/06/09 13:36:43;;;;;;;4.15;2.30;;;;;;;;;;4373459;32;316722;-82
2023/06/09 13:39:10;;;;;;;10.00;3.37;;;;;;;;;;4386414;32;316867;-82
2023/06/09 13:41:38;;;;;;;6.85;3.37;;;;;;;;;;4376749;32;317765;-82
2023/06/09 13:44:05;;;;;;;3.75;2.50;;;;;;;;;;4385422;32;317014;-82
2023/06/09 13:46:34;;;;;;;5.60;2.80;;;;;;;;;;4376284;32;316892;-82
2023/06/09 13:49:03;;;;;;;3.35;2.37;;;;;;;;;;4386887;32;316733;-82
2023/06/09 13:51:34;;;;;;;4.75;2.80;;;;;;;;;;4376290;32;316641;-82
2023/06/09 13:54:01;;;;;;;7.93;1.95;;;;;;;;;;4385562;32;353463;-82
2023/06/09 13:56:28;;;;;;;7.72;2.20;;;;;;;;;;4374288;32;316827;-82
2023/06/09 13:58:56;;;;;;;3.50;2.50;;;;;;;;;;4386026;32;315614;-82
2023/06/09 14:01:23;;;;;;;7.45;2.67;;;;;;;;;;4375031;32;316727;-82
2023/06/09 14:03:52;;;;;;;3.42;2.25;;;;;;;;;;4385949;32;316725;-82
2023/06/09 14:06:19;;;;;;;4.65;2.37;;;;;;;;;;4376551;32;317346;-82
2023/06/09 14:08:47;;;;;;;5.78;2.53;;;;;;;;;;4386449;32;316646;-82
2023/06/09 14:11:14;;;;;;;6.72;2.47;;;;;;;;;;4385487;32;316711;-81
2023/06/09 14:13:42;;;;;;;4.30;2.08;;;;;;;;;;4376046;32;316689;-82
2023/06/09 14:16:09;;;;;;;4.12;2.60;;;;;;;;;;4385626;32;316549;-82
2023/06/09 14:18:36;;;;;;;3.12;2.10;;;;;;;;;;4375116;32;316746;-82
2023/06/09 14:21:06;;;;;;;3.10;2.08;;;;;;;;;;4386621;32;318917;-81
2023/06/09 14:23:33;;;;;;;5.80;2.30;;;;;;;;;;4374357;32;316974;-81
2023/06/09 14:26:00;;;;;;;5.90;1.90;;;;;;;;;;4386652;32;316534;-82
2023/06/09 14:28:28;;;;;;;4.60;2.10;;;;;;;;;;4375998;32;316576;-82
2023/06/09 14:30:56;;;;;;;6.50;2.37;;;;;;;;;;4385154;32;316669;-81
2023/06/09 14:33:23;;;;;;;3.87;2.22;;;;;;;;;;4375384;32;338619;-80
2023/06/09 14:35:50;;;;;;;3.90;2.35;;;;;;;;;;4384858;32;316687;-80
2023/06/09 14:38:20;;;;;;;7.22;1.67;;;;;;;;;;4385997;32;316606;-81
2023/06/09 14:40:47;;;;;;;3.28;1.98;;;;;;;;;;4372056;32;416217;-81